Terminal Aerodrome Forecast
Issued by NWS Twin Cities, MN

Home | Current Version | Previous Version | Graphics & Text | Print | Product List | Glossary On
Versions: 1 2 3 4 5 6 7 8 9 10 11 12 13
000
FTUS43 KMPX 201700
TAFEAU
TAF
KEAU 201739Z 2018/2118 18004KT P6SM BKN060 OVC120
     FM202300 07003KT P6SM VCSH BKN050 OVC090
     FM210500 VRB02KT 5SM BR SCT050 BKN070
     FM210900 VRB02KT 2SM BR VCSH FEW005 SCT070
      TEMPO 2109/2113 1/4SM FG VV005
     FM211300 29004KT 5SM BR SCT090
     FM211600 30010KT P6SM SCT100=

USA.gov is the U.S. government's official web portal to all federal, state and local government web resources and services.